createdAt,value
2017-11-13T00:00:03.963Z,89.10
2017-11-13T00:02:31.444Z,88.60
2017-11-13T00:04:59.696Z,88.70
2017-11-13T00:07:27.195Z,88.60
2017-11-13T00:09:54.753Z,88.60
2017-11-13T00:12:22.244Z,88.60
2017-11-13T00:14:49.729Z,88.60
2017-11-13T00:17:17.223Z,88.70
2017-11-13T00:19:44.704Z,89.30
2017-11-13T00:22:12.382Z,88.80
2017-11-13T00:24:40.016Z,88.80
2017-11-13T00:27:07.503Z,88.70
2017-11-13T00:29:34.991Z,88.70
2017-11-13T00:32:03.337Z,88.80
2017-11-13T00:34:30.826Z,88.80
2017-11-13T00:36:59.172Z,88.60
2017-11-13T00:39:26.682Z,88.70
2017-11-13T00:41:54.177Z,88.60
2017-11-13T00:44:21.665Z,88.50
2017-11-13T00:46:49.944Z,88.50
2017-11-13T00:49:18.190Z,88.60
2017-11-13T00:51:45.752Z,88.50
2017-11-13T00:54:13.312Z,88.60
2017-11-13T00:56:40.984Z,88.40
2017-11-13T00:59:08.527Z,88.50
2017-11-13T01:01:36.104Z,88.50
2017-11-13T01:04:03.649Z,88.70
2017-11-13T01:06:31.132Z,88.60
2017-11-13T01:08:59.390Z,88.90
2017-11-13T01:11:26.948Z,88.70
2017-11-13T01:13:54.780Z,88.70
2017-11-13T01:16:22.448Z,88.70
2017-11-13T01:18:50.156Z,88.70
2017-11-13T01:21:17.630Z,88.70
2017-11-13T01:23:45.965Z,88.70
2017-11-13T01:26:13.452Z,88.60
2017-11-13T01:28:41.772Z,88.60
2017-11-13T01:31:09.254Z,88.60
2017-11-13T01:33:36.748Z,88.70
2017-11-13T01:36:05.012Z,88.60
2017-11-13T01:38:33.271Z,88.60
2017-11-13T01:41:00.772Z,88.60
2017-11-13T01:43:28.272Z,88.60
2017-11-13T01:45:55.751Z,88.70
2017-11-13T01:48:23.244Z,88.50
2017-11-13T01:50:50.729Z,88.70
2017-11-13T01:53:18.312Z,88.50
2017-11-13T01:55:45.868Z,88.60
2017-11-13T01:58:13.431Z,88.60
2017-11-13T02:00:40.919Z,88.50
2017-11-13T02:03:09.172Z,88.60
2017-11-13T02:05:36.880Z,88.60
2017-11-13T02:08:05.071Z,88.60
2017-11-13T02:10:32.796Z,88.60
2017-11-13T02:13:00.447Z,88.60
2017-11-13T02:15:27.952Z,88.60
2017-11-13T02:17:55.437Z,88.60
2017-11-13T02:20:22.950Z,88.70
2017-11-13T02:22:51.387Z,88.70
2017-11-13T02:25:18.977Z,88.50
2017-11-13T02:27:46.516Z,88.70
2017-11-13T02:30:14.784Z,88.70
2017-11-13T02:32:42.316Z,88.70
2017-11-13T02:35:09.873Z,88.70
2017-11-13T02:37:37.348Z,88.80
2017-11-13T02:40:04.908Z,88.70
2017-11-13T02:42:32.463Z,88.70
2017-11-13T02:45:00.060Z,88.10
2017-11-13T02:47:28.309Z,88.70
2017-11-13T02:49:55.793Z,88.60
2017-11-13T02:52:23.268Z,88.70
2017-11-13T02:54:50.769Z,88.80
2017-11-13T02:57:18.415Z,88.80
2017-11-13T02:59:46.144Z,88.80
2017-11-13T03:02:13.711Z,88.70
2017-11-13T03:04:41.203Z,88.70
2017-11-13T03:07:08.683Z,88.70
2017-11-13T03:09:37.023Z,88.70
2017-11-13T03:12:04.591Z,88.70
2017-11-13T03:14:32.082Z,88.60
2017-11-13T03:17:00.404Z,88.60
2017-11-13T03:19:27.884Z,88.60
2017-11-13T03:21:55.365Z,88.60
2017-11-13T03:24:23.616Z,88.60
2017-11-13T03:26:51.111Z,88.60
2017-11-13T03:29:19.355Z,88.60
2017-11-13T03:31:46.902Z,88.60
2017-11-13T03:34:14.416Z,88.50
2017-11-13T03:36:41.978Z,88.50
2017-11-13T03:39:09.523Z,88.50
2017-11-13T03:41:37.850Z,88.60
2017-11-13T03:44:05.336Z,88.60
2017-11-13T03:46:33.617Z,88.70
2017-11-13T03:49:01.856Z,88.70
2017-11-13T03:51:29.395Z,88.60
2017-11-13T03:53:57.087Z,88.60
2017-11-13T03:56:24.727Z,88.60
2017-11-13T03:58:52.296Z,88.60
2017-11-13T04:01:19.767Z,88.70
2017-11-13T04:03:47.312Z,88.60
2017-11-13T04:06:14.915Z,88.70
2017-11-13T04:08:43.228Z,88.70
2017-11-13T04:11:10.837Z,88.70
2017-11-13T04:13:38.395Z,88.70
2017-11-13T04:16:05.889Z,88.80
2017-11-13T04:18:34.123Z,88.80
2017-11-13T04:21:02.378Z,89.80
2017-11-13T04:23:29.847Z,88.90
2017-11-13T04:25:57.397Z,88.80
2017-11-13T04:28:24.969Z,88.70
2017-11-13T04:30:52.495Z,88.70
2017-11-13T04:33:19.991Z,88.60
2017-11-13T04:35:48.344Z,88.70
2017-11-13T04:38:15.827Z,88.70
2017-11-13T04:40:44.067Z,88.60
2017-11-13T04:43:11.563Z,88.60
2017-11-13T04:45:40.095Z,88.70
2017-11-13T04:48:07.707Z,88.70
2017-11-13T04:50:36.165Z,88.60
2017-11-13T04:53:03.789Z,88.60
2017-11-13T04:55:31.385Z,88.60
2017-11-13T04:57:58.929Z,88.60
2017-11-13T05:00:26.422Z,88.50
2017-11-13T05:02:54.760Z,88.60
2017-11-13T05:05:22.253Z,88.60
2017-11-13T05:07:50.590Z,88.50
2017-11-13T05:10:18.184Z,88.50
2017-11-13T05:12:46.903Z,89.40
2017-11-13T05:15:14.554Z,88.40
2017-11-13T05:17:42.954Z,88.50
2017-11-13T05:20:10.447Z,88.50
2017-11-13T05:22:38.004Z,88.40
2017-11-13T05:25:05.556Z,88.30
2017-11-13T05:27:33.055Z,88.60
2017-11-13T05:30:01.599Z,89.10
2017-11-13T05:32:29.248Z,89.10
2017-11-13T05:34:57.577Z,89.80
2017-11-13T05:37:25.832Z,89.20
2017-11-13T05:39:53.336Z,89.20
2017-11-13T05:42:20.827Z,89.00
2017-11-13T05:44:48.303Z,88.70
2017-11-13T05:47:15.859Z,88.80
2017-11-13T05:49:43.347Z,88.60
2017-11-13T05:52:11.136Z,88.90
2017-11-13T05:54:38.612Z,88.80
2017-11-13T05:57:06.183Z,88.90
2017-11-13T05:59:33.675Z,89.20
2017-11-13T06:02:01.957Z,89.20
2017-11-13T06:04:29.481Z,89.20
2017-11-13T06:06:57.023Z,89.20
2017-11-13T06:09:24.610Z,89.10
2017-11-13T06:11:52.143Z,89.30
2017-11-13T06:14:19.630Z,89.30
2017-11-13T06:16:47.883Z,89.30
2017-11-13T06:19:15.427Z,89.30
2017-11-13T06:21:42.997Z,89.20
2017-11-13T06:24:10.592Z,89.10
2017-11-13T06:26:38.845Z,89.10
2017-11-13T06:29:07.097Z,89.10
2017-11-13T06:31:34.588Z,89.10
2017-11-13T06:34:02.838Z,89.00
2017-11-13T06:36:30.316Z,89.00
2017-11-13T06:38:58.569Z,88.90
2017-11-13T06:41:26.185Z,88.90
2017-11-13T06:43:54.498Z,88.90
2017-11-13T06:46:23.028Z,88.90
2017-11-13T06:48:50.606Z,88.90
2017-11-13T06:51:18.208Z,88.90
2017-11-13T06:53:45.769Z,89.00
2017-11-13T06:56:13.246Z,88.90
2017-11-13T06:58:41.499Z,89.00
2017-11-13T07:01:08.997Z,88.90
2017-11-13T07:03:36.491Z,89.00
2017-11-13T07:06:04.105Z,89.10
2017-11-13T07:08:31.623Z,89.10
2017-11-13T07:10:59.119Z,89.20
2017-11-13T07:13:27.460Z,89.30
2017-11-13T07:15:54.932Z,89.30
2017-11-13T07:18:22.426Z,89.30
2017-11-13T07:20:50.007Z,89.40
2017-11-13T07:23:17.485Z,89.50
2017-11-13T07:25:44.992Z,89.30
2017-11-13T07:28:12.472Z,89.30
2017-11-13T07:30:39.952Z,89.30
2017-11-13T07:33:07.724Z,89.40
2017-11-13T07:35:35.425Z,89.30
2017-11-13T07:38:03.832Z,89.30
2017-11-13T07:40:31.327Z,89.30
2017-11-13T07:42:58.833Z,89.50
2017-11-13T07:45:26.309Z,89.40
2017-11-13T07:47:53.802Z,89.20
2017-11-13T07:50:21.297Z,89.30
2017-11-13T07:52:48.784Z,89.40
2017-11-13T07:55:16.286Z,89.40
2017-11-13T07:57:44.568Z,89.40
2017-11-13T08:00:12.836Z,89.40
2017-11-13T08:02:41.086Z,89.90
2017-11-13T08:05:08.556Z,89.20
2017-11-13T08:07:36.140Z,89.00
2017-11-13T08:10:04.456Z,89.20
2017-11-13T08:12:32.007Z,89.10
2017-11-13T08:14:59.501Z,89.30
2017-11-13T08:17:26.988Z,89.20
2017-11-13T08:19:55.248Z,89.30
2017-11-13T08:22:22.737Z,89.30
2017-11-13T08:24:50.987Z,89.40
2017-11-13T08:27:19.331Z,89.50
2017-11-13T08:29:47.855Z,89.50
2017-11-13T08:32:16.201Z,89.40
2017-11-13T08:34:43.830Z,89.40
2017-11-13T08:37:11.365Z,89.50
2017-11-13T08:39:38.895Z,89.40
2017-11-13T08:42:06.430Z,89.50
2017-11-13T08:44:33.900Z,90.20
2017-11-13T08:47:01.423Z,89.60
2017-11-13T08:49:29.048Z,89.50
2017-11-13T08:51:56.578Z,89.50
2017-11-13T08:54:24.132Z,89.50
2017-11-13T08:56:51.616Z,89.70
2017-11-13T08:59:19.879Z,89.70
2017-11-13T09:01:47.408Z,89.70
2017-11-13T09:04:14.920Z,89.70
2017-11-13T09:06:42.489Z,89.70
2017-11-13T09:09:09.972Z,89.70
2017-11-13T09:11:37.455Z,89.70
2017-11-13T09:14:05.045Z,89.80
2017-11-13T09:16:32.561Z,89.80
2017-11-13T09:19:00.989Z,89.90
2017-11-13T09:21:28.599Z,89.80
2017-11-13T09:23:56.136Z,89.80
2017-11-13T09:26:23.716Z,89.90
2017-11-13T09:28:51.232Z,89.90
2017-11-13T09:31:18.711Z,89.90
2017-11-13T09:33:46.288Z,89.90
2017-11-13T09:36:13.851Z,89.80
2017-11-13T09:38:41.412Z,90.00
2017-11-13T09:41:09.046Z,90.00
2017-11-13T09:43:36.633Z,90.00
2017-11-13T09:46:04.108Z,90.00
2017-11-13T09:48:32.352Z,90.40
2017-11-13T09:50:59.837Z,90.10
2017-11-13T09:53:27.332Z,90.10
2017-11-13T09:55:54.873Z,90.00
2017-11-13T09:58:23.251Z,90.20
2017-11-13T10:00:50.884Z,90.20
2017-11-13T10:03:18.428Z,90.20
2017-11-13T10:05:45.903Z,90.20
2017-11-13T10:08:13.521Z,90.10
2017-11-13T10:10:42.131Z,90.20
2017-11-13T10:13:09.771Z,90.10
2017-11-13T10:15:37.392Z,90.10
2017-11-13T10:18:05.755Z,90.10
2017-11-13T10:20:33.263Z,90.10
2017-11-13T10:23:00.748Z,90.10
2017-11-13T10:25:28.243Z,90.10
2017-11-13T10:27:55.750Z,90.10
2017-11-13T10:30:23.270Z,90.10
2017-11-13T10:32:50.798Z,90.20
2017-11-13T10:35:18.268Z,90.20
2017-11-13T10:37:46.521Z,90.20
2017-11-13T10:40:14.014Z,90.20
2017-11-13T10:42:41.494Z,90.20
2017-11-13T10:45:09.071Z,90.20
2017-11-13T10:47:36.595Z,90.30
2017-11-13T10:50:04.075Z,90.30
2017-11-13T10:52:31.567Z,90.30
2017-11-13T10:54:59.048Z,90.30
2017-11-13T10:57:26.611Z,90.30
2017-11-13T10:59:54.325Z,90.20
2017-11-13T11:02:22.266Z,90.30
2017-11-13T11:04:49.774Z,90.30
2017-11-13T11:07:17.292Z,90.30
2017-11-13T11:09:44.787Z,90.30
2017-11-13T11:12:27.914Z,90.00
2017-11-13T11:14:58.682Z,90.30
2017-11-13T11:17:41.027Z,90.30
2017-11-13T11:20:10.271Z,90.30
2017-11-13T11:22:50.353Z,90.30
2017-11-13T11:25:18.587Z,90.20
2017-11-13T11:27:46.834Z,90.30
2017-11-13T11:30:20.256Z,90.30
2017-11-13T11:32:50.183Z,90.30
2017-11-13T11:35:18.536Z,90.30
2017-11-13T11:38:01.780Z,90.30
2017-11-13T11:40:30.508Z,90.30
2017-11-13T11:42:58.100Z,90.30
2017-11-13T11:45:43.415Z,90.30
2017-11-13T11:48:15.694Z,90.30
2017-11-13T11:50:43.185Z,90.30
2017-11-13T11:53:10.655Z,90.30
2017-11-13T11:55:40.635Z,90.40
2017-11-13T11:58:08.129Z,90.40
2017-11-13T12:00:35.612Z,90.40
2017-11-13T12:03:03.868Z,90.40
2017-11-13T12:05:31.379Z,90.40
2017-11-13T12:07:58.971Z,90.40
2017-11-13T12:10:26.506Z,90.40
2017-11-13T12:12:53.975Z,90.40
2017-11-13T12:15:21.464Z,90.40
2017-11-13T12:17:48.984Z,90.40
2017-11-13T12:20:17.336Z,90.30
2017-11-13T12:22:44.979Z,90.30
2017-11-13T12:25:13.408Z,90.40
2017-11-13T12:27:41.020Z,90.40
2017-11-13T12:30:09.366Z,90.40
2017-11-13T12:32:36.858Z,90.40
2017-11-13T12:35:04.334Z,90.40
2017-11-13T12:37:31.823Z,90.40
2017-11-13T12:39:59.310Z,90.40
2017-11-13T12:42:27.687Z,90.40
2017-11-13T12:44:55.975Z,90.40
2017-11-13T12:47:24.302Z,90.40
2017-11-13T12:49:51.764Z,90.50
2017-11-13T12:52:19.258Z,90.50
2017-11-13T12:54:47.508Z,90.50
2017-11-13T12:57:14.996Z,90.50
2017-11-13T12:59:43.265Z,90.50
2017-11-13T13:02:11.568Z,90.50
2017-11-13T13:04:39.172Z,90.50
2017-11-13T13:07:06.702Z,90.50
2017-11-13T13:09:34.183Z,90.50
2017-11-13T13:12:01.667Z,90.50
2017-11-13T13:14:29.933Z,90.80
2017-11-13T13:16:57.416Z,90.40
2017-11-13T13:19:25.689Z,90.50
2017-11-13T13:21:54.685Z,90.50
2017-11-13T13:24:23.024Z,90.50
2017-11-13T13:26:50.917Z,90.50
2017-11-13T13:29:19.540Z,90.60
2017-11-13T13:31:47.141Z,90.50
2017-11-13T13:34:14.627Z,90.50
2017-11-13T13:36:42.860Z,90.50
2017-11-13T13:39:10.363Z,90.50
2017-11-13T13:41:38.692Z,90.60
2017-11-13T13:44:06.179Z,90.60
2017-11-13T13:46:34.606Z,90.50
2017-11-13T13:49:02.142Z,90.50
2017-11-13T13:51:29.685Z,90.60
2017-11-13T13:53:57.963Z,90.50
2017-11-13T13:56:26.252Z,90.60
2017-11-13T13:58:53.761Z,90.60
2017-11-13T14:01:21.241Z,90.50
2017-11-13T14:03:49.496Z,90.60
2017-11-13T14:06:17.252Z,90.60
2017-11-13T14:08:44.883Z,90.60
2017-11-13T14:11:12.413Z,90.60
2017-11-13T14:13:40.664Z,90.60
2017-11-13T14:16:08.140Z,90.60
2017-11-13T14:18:36.389Z,90.70
2017-11-13T14:21:03.874Z,90.70
2017-11-13T14:23:31.443Z,90.70
2017-11-13T14:25:59.215Z,90.70
2017-11-13T14:28:26.877Z,90.70
2017-11-13T14:30:55.469Z,90.70
2017-11-13T14:33:22.959Z,90.70
2017-11-13T14:35:50.452Z,90.70
2017-11-13T14:38:18.712Z,90.70
2017-11-13T14:40:46.183Z,90.70
2017-11-13T14:43:14.450Z,90.80
2017-11-13T14:45:42.802Z,90.80
2017-11-13T14:48:10.313Z,90.80
2017-11-13T14:50:37.991Z,90.70
2017-11-13T14:53:05.471Z,90.70
2017-11-13T14:55:32.956Z,90.70
2017-11-13T14:58:01.208Z,90.70
2017-11-13T15:00:28.699Z,90.70
2017-11-13T15:02:56.936Z,90.80
2017-11-13T15:05:24.448Z,90.70
2017-11-13T15:07:52.071Z,90.70
2017-11-13T15:10:19.699Z,90.70
2017-11-13T15:12:47.198Z,90.70
2017-11-13T15:15:15.549Z,90.70
2017-11-13T15:17:43.044Z,90.70
2017-11-13T15:20:11.300Z,90.70
2017-11-13T15:22:38.888Z,90.70
2017-11-13T15:25:06.772Z,90.70
2017-11-13T15:27:34.570Z,90.70
2017-11-13T15:30:02.147Z,90.70
2017-11-13T15:32:29.607Z,90.70
2017-11-13T15:34:57.104Z,90.70
2017-11-13T15:37:24.596Z,90.70
2017-11-13T15:39:52.073Z,90.70
2017-11-13T15:42:19.562Z,90.70
2017-11-13T15:44:47.107Z,90.70
2017-11-13T15:47:14.566Z,90.70
2017-11-13T15:49:42.912Z,90.70
2017-11-13T15:52:10.483Z,90.70
2017-11-13T15:54:37.973Z,90.70
2017-11-13T15:57:05.507Z,90.70
2017-11-13T15:59:33.833Z,90.70
2017-11-13T16:02:01.367Z,90.60
2017-11-13T16:04:28.838Z,90.70
2017-11-13T16:06:56.343Z,90.70
2017-11-13T16:09:23.835Z,90.60
2017-11-13T16:11:51.560Z,90.60
2017-11-13T16:14:19.152Z,90.50
2017-11-13T16:16:46.994Z,90.50
2017-11-13T16:19:14.534Z,90.50
2017-11-13T16:21:42.023Z,90.60
2017-11-13T16:24:10.289Z,90.50
2017-11-13T16:26:38.550Z,90.50
2017-11-13T16:29:06.044Z,90.40
2017-11-13T16:31:33.564Z,90.40
2017-11-13T16:34:01.117Z,90.40
2017-11-13T16:36:28.612Z,90.50
2017-11-13T16:38:56.861Z,90.40
2017-11-13T16:41:24.351Z,90.40
2017-11-13T16:43:51.843Z,90.30
2017-11-13T16:46:19.451Z,90.30
2017-11-13T16:48:47.756Z,90.30
2017-11-13T16:51:15.288Z,90.60
2017-11-13T16:53:44.255Z,90.40
2017-11-13T16:56:11.837Z,90.40
2017-11-13T16:58:40.171Z,90.60
2017-11-13T17:01:07.664Z,90.50
2017-11-13T17:03:35.925Z,91.00
2017-11-13T17:06:03.403Z,91.10
2017-11-13T17:08:31.690Z,91.00
2017-11-13T17:10:59.931Z,91.20
2017-11-13T17:13:28.244Z,91.20
2017-11-13T17:15:56.588Z,91.10
2017-11-13T17:18:24.451Z,91.10
2017-11-13T17:20:52.289Z,91.10
2017-11-13T17:23:19.837Z,91.20
2017-11-13T17:25:47.312Z,91.20
2017-11-13T17:28:14.791Z,91.40
2017-11-13T17:30:42.288Z,91.60
2017-11-13T17:33:09.872Z,93.20
2017-11-13T17:35:37.397Z,92.60
2017-11-13T17:38:04.943Z,92.60
2017-11-13T17:40:32.429Z,92.20
2017-11-13T17:43:00.243Z,92.00
2017-11-13T17:45:28.487Z,91.80
2017-11-13T17:47:56.005Z,91.90
2017-11-13T17:50:24.339Z,91.80
2017-11-13T17:52:51.841Z,91.80
2017-11-13T17:55:19.395Z,91.80
2017-11-13T17:57:47.682Z,92.10
2017-11-13T18:00:15.940Z,91.70
2017-11-13T18:02:44.186Z,91.70
2017-11-13T18:05:11.688Z,91.70
2017-11-13T18:07:39.248Z,91.70
2017-11-13T18:10:06.876Z,91.70
2017-11-13T18:12:34.743Z,91.70
2017-11-13T18:15:02.365Z,91.70
2017-11-13T18:17:29.895Z,91.70
2017-11-13T18:19:58.133Z,91.70
2017-11-13T18:22:25.645Z,91.60
2017-11-13T18:24:53.136Z,91.60
2017-11-13T18:27:20.688Z,91.60
2017-11-13T18:29:48.243Z,91.60
2017-11-13T18:32:15.815Z,91.60
2017-11-13T18:34:43.326Z,91.60
2017-11-13T18:37:11.057Z,91.50
2017-11-13T18:39:38.549Z,91.50
2017-11-13T18:42:06.030Z,91.20
2017-11-13T18:44:33.588Z,91.50
2017-11-13T18:47:01.169Z,91.40
2017-11-13T18:49:28.643Z,91.50
2017-11-13T18:51:56.960Z,91.40
2017-11-13T18:54:24.839Z,91.40
2017-11-13T18:56:52.321Z,91.40
2017-11-13T18:59:19.988Z,91.40
2017-11-13T19:01:47.927Z,91.40
2017-11-13T19:04:15.527Z,91.40
2017-11-13T19:06:42.991Z,91.40
2017-11-13T19:09:11.256Z,91.40
2017-11-13T19:11:38.772Z,91.40
2017-11-13T19:14:06.263Z,91.00
2017-11-13T19:16:33.776Z,91.40
2017-11-13T19:19:01.910Z,91.40
2017-11-13T19:21:30.175Z,91.40
2017-11-13T19:23:57.680Z,91.40
2017-11-13T19:26:25.167Z,91.40
2017-11-13T19:28:52.710Z,91.40
2017-11-13T19:31:20.200Z,91.40
2017-11-13T19:33:48.584Z,91.40
2017-11-13T19:36:16.079Z,91.40
2017-11-13T19:38:44.666Z,91.40
2017-11-13T19:41:12.306Z,91.40
2017-11-13T19:43:40.613Z,91.30
2017-11-13T19:46:08.130Z,91.30
2017-11-13T19:48:36.396Z,91.40
2017-11-13T19:51:03.901Z,91.30
2017-11-13T19:53:31.457Z,91.30
2017-11-13T19:55:59.010Z,91.30
2017-11-13T19:58:26.831Z,91.30
2017-11-13T20:00:54.479Z,91.30
2017-11-13T20:03:22.810Z,91.60
2017-11-13T20:05:51.310Z,91.60
2017-11-13T20:08:18.871Z,91.50
2017-11-13T20:10:46.392Z,91.50
2017-11-13T20:13:15.028Z,91.50
2017-11-13T20:15:42.528Z,91.50
2017-11-13T20:18:10.776Z,91.40
2017-11-13T20:20:38.286Z,91.40
2017-11-13T20:23:05.809Z,91.40
2017-11-13T20:25:33.292Z,91.40
2017-11-13T20:28:00.801Z,91.40
2017-11-13T20:30:28.304Z,91.40
2017-11-13T20:32:55.859Z,91.40
2017-11-13T20:35:24.369Z,91.40
2017-11-13T20:37:52.136Z,91.40
2017-11-13T20:40:19.800Z,91.40
2017-11-13T20:42:47.323Z,91.40
2017-11-13T20:45:16.234Z,91.40
2017-11-13T20:47:43.720Z,91.40
2017-11-13T20:50:11.978Z,91.40
2017-11-13T20:52:40.169Z,91.40
2017-11-13T20:55:07.680Z,91.40
2017-11-13T20:57:35.967Z,91.40
2017-11-13T21:00:03.691Z,91.40
2017-11-13T21:02:31.507Z,91.40
2017-11-13T21:05:00.200Z,91.30
2017-11-13T21:07:27.910Z,91.30
2017-11-13T21:09:55.518Z,91.30
2017-11-13T21:12:23.012Z,91.30
2017-11-13T21:14:50.509Z,91.30
2017-11-13T21:17:18.052Z,91.30
2017-11-13T21:19:46.725Z,91.70
2017-11-13T21:22:14.348Z,91.30
2017-11-13T21:24:41.840Z,91.30
2017-11-13T21:27:10.123Z,91.30
2017-11-13T21:29:38.395Z,91.30
2017-11-13T21:32:05.897Z,91.20
2017-11-13T21:34:33.386Z,91.30
2017-11-13T21:37:02.516Z,91.30
2017-11-13T21:39:30.772Z,91.30
2017-11-13T21:41:58.280Z,91.30
2017-11-13T21:44:25.855Z,91.30
2017-11-13T21:46:53.336Z,91.30
2017-11-13T21:49:21.767Z,91.30
2017-11-13T21:51:49.305Z,91.30
2017-11-13T21:54:17.576Z,91.30
2017-11-13T21:56:45.856Z,91.30
2017-11-13T21:59:14.134Z,91.30
2017-11-13T22:01:41.875Z,91.30
2017-11-13T22:04:10.559Z,91.30
2017-11-13T22:06:38.214Z,91.20
2017-11-13T22:09:05.847Z,91.30
2017-11-13T22:11:33.322Z,91.30
2017-11-13T22:14:00.861Z,91.40
2017-11-13T22:16:28.346Z,92.00
2017-11-13T22:18:55.929Z,91.90
2017-11-13T22:21:24.257Z,91.60
2017-11-13T22:23:51.852Z,91.50
2017-11-13T22:26:20.343Z,91.40
2017-11-13T22:28:48.643Z,91.30
2017-11-13T22:31:16.214Z,91.30
2017-11-13T22:33:43.708Z,91.30
2017-11-13T22:36:11.191Z,91.20
2017-11-13T22:38:39.439Z,91.20
2017-11-13T22:41:07.048Z,91.20
2017-11-13T22:43:34.587Z,91.20
2017-11-13T22:46:03.146Z,91.10
2017-11-13T22:48:30.728Z,91.10
2017-11-13T22:50:58.971Z,91.00
2017-11-13T22:53:26.459Z,91.00
2017-11-13T22:55:54.720Z,91.00
2017-11-13T22:58:22.226Z,91.00
2017-11-13T23:00:49.895Z,91.00
2017-11-13T23:03:17.903Z,91.00
2017-11-13T23:05:45.726Z,90.90
2017-11-13T23:08:13.238Z,90.90
2017-11-13T23:10:41.484Z,90.90
2017-11-13T23:13:08.977Z,90.90
2017-11-13T23:15:37.245Z,90.90
2017-11-13T23:18:05.497Z,90.90
2017-11-13T23:20:32.977Z,90.90
2017-11-13T23:23:01.383Z,90.80
2017-11-13T23:25:28.865Z,90.80
2017-11-13T23:27:56.399Z,90.80
2017-11-13T23:30:23.878Z,90.80
2017-11-13T23:32:51.356Z,90.80
2017-11-13T23:35:18.847Z,90.70
2017-11-13T23:37:47.175Z,90.70
2017-11-13T23:40:14.732Z,90.70
2017-11-13T23:42:42.271Z,90.70
2017-11-13T23:45:09.772Z,90.70
2017-11-13T23:47:37.491Z,90.60
2017-11-13T23:50:04.976Z,90.60
2017-11-13T23:52:32.700Z,90.70
2017-11-13T23:55:00.395Z,90.60
2017-11-13T23:57:28.146Z,90.60
2017-11-13T23:59:55.741Z,90.60
